Time;durP1;ratioP1;P1;durP2;ratioP2;P2;SDS_P1;SDS_P2;PMS_P1;PMS_P2;Temp;Humidity;BMP_temperature;BMP_pressure;BME280_temperature;BME280_humidity;BME280_pressure;Samples;Min_cycle;Max_cycle;Signal;HPM_P1;HPM_P2
2022/04/10 00:01:21;;;;;;;;;;;;;;;8.48;96.32;98596.97;5052551;28;798;-57
2022/04/10 00:03:48;;;;;;;;;;;;;;;8.44;95.77;98599.78;5051950;28;877;-57
2022/04/10 00:06:16;;;;;;;;;;;;;;;8.45;95.54;98606.06;5052629;28;799;-57
2022/04/10 00:08:42;;;;;;;;;;;;;;;8.44;95.95;98599.00;5052090;28;862;-57
2022/04/10 00:11:10;;;;;;;;;;;;;;;8.50;96.06;98600.09;5052484;28;1906;-57
2022/04/10 00:13:37;;;;;;;;;;;;;;;8.37;96.29;98592.38;5051995;28;895;-57
2022/04/10 00:16:05;;;;;;;;;;;;;;;8.37;96.67;98591.63;5052105;28;798;-57
2022/04/10 00:18:34;;;;;;;;;;;;;;;8.26;96.50;98594.53;5051741;28;850;-57
2022/04/10 00:21:01;;;;;;;;;;;;;;;8.21;97.31;98600.50;5051641;28;898;-57
2022/04/10 00:23:28;;;;;;;;;;;;;;;8.26;97.82;98591.00;5051657;28;854;-57
2022/04/10 00:25:54;;;;;;;;;;;;;;;8.22;97.52;98590.28;5051328;28;1211;-57
2022/04/10 00:28:22;;;;;;;;;;;;;;;8.21;97.89;98586.72;5051574;28;897;-57
2022/04/10 00:30:48;;;;;;;;;;;;;;;8.26;97.23;98583.50;5051425;28;1906;-57
2022/04/10 00:33:15;;;;;;;;;;;;;;;8.38;98.45;98568.38;5051798;28;823;-57
2022/04/10 00:35:42;;;;;;;;;;;;;;;8.52;97.14;98567.41;5051561;28;909;-57
2022/04/10 00:38:09;;;;;;;;;;;;;;;8.61;97.31;98566.88;5051533;28;842;-57
2022/04/10 00:40:35;;;;;;;;;;;;;;;8.68;97.31;98558.47;5050137;28;886;-57
2022/04/10 00:43:03;;;;;;;;;;;;;;;8.91;97.21;98561.22;5051479;28;1211;-57
2022/04/10 00:45:30;;;;;;;;;;;;;;;9.39;95.82;98565.44;5051516;28;874;-57
2022/04/10 00:47:57;;;;;;;;;;;;;;;9.86;93.39;98567.22;5051652;28;850;-57
2022/04/10 00:50:25;;;;;;;;;;;;;;;10.19;90.66;98572.81;5051407;28;1966;-57
2022/04/10 00:52:51;;;;;;;;;;;;;;;10.45;88.33;98571.03;5051389;28;791;-57
2022/04/10 00:55:18;;;;;;;;;;;;;;;10.54;86.78;98562.94;5051449;28;936;-57
2022/04/10 00:57:46;;;;;;;;;;;;;;;10.61;85.93;98571.03;5051366;28;910;-57
2022/04/10 01:00:14;;;;;;;;;;;;;;;10.69;85.02;98573.63;5051213;28;937;-57
2022/04/10 01:02:41;;;;;;;;;;;;;;;10.69;84.43;98573.63;5051221;28;933;-57
2022/04/10 01:05:08;;;;;;;;;;;;;;;10.69;84.23;98566.13;5051288;28;868;-57
2022/04/10 01:07:35;;;;;;;;;;;;;;;10.60;83.62;98569.50;5051240;28;803;-57
2022/04/10 01:10:04;;;;;;;;;;;;;;;10.40;84.11;98580.63;5051112;28;1878;-57
2022/04/10 01:12:32;;;;;;;;;;;;;;;10.16;84.76;98570.91;5051214;28;850;-57
2022/04/10 01:14:59;;;;;;;;;;;;;;;9.94;85.48;98568.63;5051171;28;794;-57
2022/04/10 01:17:24;;;;;;;;;;;;;;;9.79;86.86;98562.66;5054113;28;893;-57
2022/04/10 01:19:52;;;;;;;;;;;;;;;9.85;87.16;98568.41;5055059;28;877;-57
2022/04/10 01:22:27;;;;;;;;;;;;;;;9.96;86.99;98571.75;5055124;28;801;-57
2022/04/10 01:24:54;;;;;;;;;;;;;;;10.13;86.51;98567.00;5055075;28;1050;-57
2022/04/10 01:27:21;;;;;;;;;;;;;;;10.34;85.82;98565.75;5054774;28;1417;-57
2022/04/10 01:29:48;;;;;;;;;;;;;;;10.54;85.21;98570.41;5054832;28;1909;-57
2022/04/10 01:32:14;;;;;;;;;;;;;;;10.53;84.72;98572.41;5054776;28;806;-57
2022/04/10 01:34:41;;;;;;;;;;;;;;;10.56;84.62;98576.28;5054866;28;838;-57
2022/04/10 01:37:09;;;;;;;;;;;;;;;10.53;84.09;98575.19;5054763;28;921;-57
2022/04/10 01:39:36;;;;;;;;;;;;;;;10.55;84.18;98561.72;5054572;28;806;-57
2022/04/10 01:42:03;;;;;;;;;;;;;;;10.54;83.91;98560.16;5054622;28;930;-57
2022/04/10 01:44:30;;;;;;;;;;;;;;;10.48;84.42;98566.66;5054896;28;818;-57
2022/04/10 01:46:56;;;;;;;;;;;;;;;10.47;84.42;98574.13;5054581;28;853;-57
2022/04/10 01:49:23;;;;;;;;;;;;;;;10.50;84.21;98576.06;5054556;28;1959;-57
2022/04/10 01:51:50;;;;;;;;;;;;;;;10.39;84.63;98579.06;5054453;28;833;-57
2022/04/10 01:54:17;;;;;;;;;;;;;;;10.35;84.54;98572.84;5054447;28;885;-57
2022/04/10 01:56:44;;;;;;;;;;;;;;;10.30;85.00;98575.34;5054350;28;810;-57
2022/04/10 01:59:11;;;;;;;;;;;;;;;10.23;84.90;98571.50;5054279;28;850;-57
2022/04/10 02:01:38;;;;;;;;;;;;;;;10.14;85.22;98570.56;5054418;28;818;-57
2022/04/10 02:04:05;;;;;;;;;;;;;;;9.96;85.29;98563.47;5054297;28;873;-57
2022/04/10 02:06:34;;;;;;;;;;;;;;;9.70;86.28;98562.44;5054115;28;901;-57
2022/04/10 02:09:00;;;;;;;;;;;;;;;9.48;86.79;98566.84;5054017;28;946;-57
2022/04/10 02:11:27;;;;;;;;;;;;;;;9.33;88.89;98553.34;5054030;28;1890;-57
2022/04/10 02:13:53;;;;;;;;;;;;;;;9.27;89.87;98552.28;5054083;28;806;-57
2022/04/10 02:16:20;;;;;;;;;;;;;;;9.42;90.43;98552.00;5053998;28;877;-57
2022/04/10 02:18:47;;;;;;;;;;;;;;;9.63;89.58;98551.56;5054119;28;862;-57
2022/04/10 02:21:14;;;;;;;;;;;;;;;9.72;88.23;98556.50;5052682;28;898;-57
2022/04/10 02:23:41;;;;;;;;;;;;;;;9.78;88.32;98557.56;5053820;28;930;-57
2022/04/10 02:26:12;;;;;;;;;;;;;;;9.85;87.71;98573.16;5053540;28;1374;-57
2022/04/10 02:28:39;;;;;;;;;;;;;;;9.91;87.72;98571.47;5053716;28;921;-57
2022/04/10 02:31:05;;;;;;;;;;;;;;;10.00;87.11;98569.66;5053779;28;1971;-57
2022/04/10 02:33:33;;;;;;;;;;;;;;;9.93;87.08;98575.34;5053620;28;963;-57
2022/04/10 02:35:59;;;;;;;;;;;;;;;9.86;87.06;98578.28;5053692;28;814;-57
2022/04/10 02:38:26;;;;;;;;;;;;;;;9.70;86.97;98573.47;5053421;28;894;-57
2022/04/10 02:40:53;;;;;;;;;;;;;;;9.54;87.33;98570.66;5053536;28;893;-57
2022/04/10 02:43:21;;;;;;;;;;;;;;;9.46;88.10;98558.22;5053567;28;830;-57
2022/04/10 02:45:47;;;;;;;;;;;;;;;9.44;87.82;98558.63;5053521;28;873;-57
2022/04/10 02:48:14;;;;;;;;;;;;;;;9.36;88.99;98548.94;5053329;28;846;-57
2022/04/10 02:50:41;;;;;;;;;;;;;;;9.35;89.58;98552.94;5053635;28;1974;-57
2022/04/10 02:53:08;;;;;;;;;;;;;;;9.35;89.08;98570.25;5053347;28;874;-57
2022/04/10 02:55:36;;;;;;;;;;;;;;;9.37;89.40;98573.34;5053238;28;851;-57
2022/04/10 02:58:03;;;;;;;;;;;;;;;9.35;89.63;98563.97;5053180;28;1092;-57
2022/04/10 03:00:29;;;;;;;;;;;;;;;9.27;89.42;98570.81;5053271;28;830;-57
2022/04/10 03:02:56;;;;;;;;;;;;;;;9.13;89.49;98564.38;5053117;28;862;-57
2022/04/10 03:05:23;;;;;;;;;;;;;;;9.15;89.98;98575.75;5053048;28;893;-57
2022/04/10 03:07:50;;;;;;;;;;;;;;;9.22;90.05;98585.06;5053021;28;810;-57
2022/04/10 03:10:17;;;;;;;;;;;;;;;9.28;90.40;98592.44;5052833;28;1977;-57
2022/04/10 03:12:44;;;;;;;;;;;;;;;9.26;89.49;98599.56;5053037;28;913;-57
2022/04/10 03:15:11;;;;;;;;;;;;;;;9.13;89.59;98602.97;5052969;28;778;-57
2022/04/10 03:17:38;;;;;;;;;;;;;;;9.16;89.78;98607.63;5053088;28;953;-57
2022/04/10 03:20:05;;;;;;;;;;;;;;;9.19;89.73;98606.00;5052751;28;858;-58
2022/04/10 03:22:32;;;;;;;;;;;;;;;9.22;89.48;98610.69;5052798;28;833;-57
2022/04/10 03:24:59;;;;;;;;;;;;;;;9.18;89.65;98613.50;5052864;28;986;-57
2022/04/10 03:27:26;;;;;;;;;;;;;;;9.13;89.46;98619.50;5052456;28;1209;-57
2022/04/10 03:29:53;;;;;;;;;;;;;;;9.12;89.98;98626.19;5052522;28;1914;-57
2022/04/10 03:32:20;;;;;;;;;;;;;;;9.15;90.45;98630.88;5052693;28;1087;-57
2022/04/10 03:34:47;;;;;;;;;;;;;;;9.20;90.30;98638.66;5052581;28;814;-57
2022/04/10 03:37:14;;;;;;;;;;;;;;;9.29;90.10;98640.88;5052320;28;905;-57
2022/04/10 03:39:41;;;;;;;;;;;;;;;9.29;89.48;98629.84;5051980;28;842;-57
2022/04/10 03:42:07;;;;;;;;;;;;;;;9.27;89.77;98625.94;5052353;28;866;-57
2022/04/10 03:44:34;;;;;;;;;;;;;;;9.28;89.54;98608.19;5052409;28;864;-57
2022/04/10 03:47:00;;;;;;;;;;;;;;;9.25;89.48;98609.81;5052432;28;834;-57
2022/04/10 03:49:27;;;;;;;;;;;;;;;9.22;89.78;98605.16;5052337;28;1914;-57
2022/04/10 03:51:54;;;;;;;;;;;;;;;9.19;90.27;98623.31;5052170;28;857;-57
2022/04/10 03:54:21;;;;;;;;;;;;;;;9.21;90.33;98628.41;5052557;28;806;-57
2022/04/10 03:56:47;;;;;;;;;;;;;;;9.29;90.39;98613.28;5052139;28;818;-57
2022/04/10 03:59:14;;;;;;;;;;;;;;;9.35;90.13;98597.81;5052084;28;881;-57
2022/04/10 04:01:41;;;;;;;;;;;;;;;9.37;89.94;98609.22;5052115;28;802;-57
2022/04/10 04:04:08;;;;;;;;;;;;;;;9.39;89.63;98612.31;5050634;28;1650;-57
2022/04/10 04:06:34;;;;;;;;;;;;;;;9.43;89.69;98600.44;5051846;28;906;-57
2022/04/10 04:09:01;;;;;;;;;;;;;;;9.49;89.70;98601.50;5050585;28;1575;-57
2022/04/10 04:11:27;;;;;;;;;;;;;;;9.63;89.13;98600.44;5051931;28;1878;-57
2022/04/10 04:13:55;;;;;;;;;;;;;;;9.75;88.45;98603.34;5051807;28;869;-57
2022/04/10 04:16:21;;;;;;;;;;;;;;;9.87;88.03;98603.88;5051771;28;991;-57
2022/04/10 04:18:49;;;;;;;;;;;;;;;9.97;87.18;98613.91;5051816;28;886;-57
2022/04/10 04:21:16;;;;;;;;;;;;;;;10.05;86.85;98614.53;5051692;28;866;-57
2022/04/10 04:23:43;;;;;;;;;;;;;;;10.12;86.26;98608.88;5051680;28;905;-57
2022/04/10 04:26:10;;;;;;;;;;;;;;;10.18;85.98;98609.91;5051365;28;1256;-57
2022/04/10 04:28:37;;;;;;;;;;;;;;;10.22;85.71;98599.56;5051581;28;905;-57
2022/04/10 04:31:04;;;;;;;;;;;;;;;10.37;85.16;98598.06;5051449;28;1906;-57
2022/04/10 04:33:29;;;;;;;;;;;;;;;10.53;84.70;98599.28;5050364;28;1635;-58
2022/04/10 04:35:56;;;;;;;;;;;;;;;10.76;84.33;98604.63;5051464;28;1259;-57
2022/04/10 04:38:22;;;;;;;;;;;;;;;11.02;83.44;98607.53;5051633;28;826;-57
2022/04/10 04:40:49;;;;;;;;;;;;;;;11.23;82.11;98598.66;5051523;28;889;-57
2022/04/10 04:43:16;;;;;;;;;;;;;;;11.44;81.28;98596.53;5051466;28;861;-57
2022/04/10 04:45:42;;;;;;;;;;;;;;;11.57;80.84;98604.88;5051419;28;806;-57
2022/04/10 04:48:09;;;;;;;;;;;;;;;11.63;79.84;98606.69;5051464;28;905;-57
2022/04/10 04:50:36;;;;;;;;;;;;;;;11.65;79.77;98615.31;5050107;28;1944;-57
2022/04/10 04:53:02;;;;;;;;;;;;;;;11.58;79.66;98609.97;5055519;28;853;-57
2022/04/10 04:55:29;;;;;;;;;;;;;;;11.51;79.75;98607.41;5055534;28;960;-57
2022/04/10 04:57:55;;;;;;;;;;;;;;;11.70;79.55;98593.84;5055476;28;968;-57
2022/04/10 05:00:22;;;;;;;;;;;;;;;12.10;78.83;98579.63;5055441;28;810;-57
2022/04/10 05:02:49;;;;;;;;;;;;;;;12.52;77.89;98576.75;5055431;28;810;-57
2022/04/10 05:05:16;;;;;;;;;;;;;;;12.93;76.98;98567.47;5055444;28;810;-57
2022/04/10 05:07:43;;;;;;;;;;;;;;;13.51;76.21;98560.69;5055266;28;809;-57
2022/04/10 05:10:10;;;;;;;;;;;;;;;14.38;74.46;98578.41;5055246;28;1951;-57
2022/04/10 05:12:36;;;;;;;;;;;;;;;14.78;72.06;98613.75;5053983;28;2536;-57
2022/04/10 05:15:04;;;;;;;;;;;;;;;14.62;69.86;98625.94;5055121;28;913;-57
2022/04/10 05:17:31;;;;;;;;;;;;;;;14.43;69.35;98615.94;5055135;28;1146;-58
2022/04/10 05:19:58;;;;;;;;;;;;;;;13.86;71.52;98619.66;5055015;28;936;-57
2022/04/10 05:22:25;;;;;;;;;;;;;;;14.69;70.53;98625.63;5055116;28;896;-57
2022/04/10 05:24:52;;;;;;;;;;;;;;;15.67;66.79;98611.94;5055157;28;982;-57
2022/04/10 05:27:19;;;;;;;;;;;;;;;16.08;62.92;98601.38;5054860;28;1358;-57
2022/04/10 05:29:46;;;;;;;;;;;;;;;16.20;62.14;98599.63;5054790;28;1969;-57
2022/04/10 05:32:12;;;;;;;;;;;;;;;16.00;64.08;98599.38;5054803;28;858;-57
2022/04/10 05:34:39;;;;;;;;;;;;;;;15.94;63.58;98590.91;5055011;28;949;-57
2022/04/10 05:37:06;;;;;;;;;;;;;;;15.53;64.50;98587.50;5054619;28;925;-57
2022/04/10 05:39:32;;;;;;;;;;;;;;;15.31;65.36;98596.81;5054666;28;862;-57
2022/04/10 05:41:59;;;;;;;;;;;;;;;15.66;65.02;98593.72;5053407;28;867;-57
2022/04/10 05:44:26;;;;;;;;;;;;;;;15.86;64.74;98589.66;5054650;28;848;-57
2022/04/10 05:46:53;;;;;;;;;;;;;;;17.09;62.59;98580.56;5054544;28;873;-57
2022/04/10 05:49:20;;;;;;;;;;;;;;;17.66;60.42;98568.44;5053239;28;1893;-57
2022/04/10 05:51:50;;;;;;;;;;;;;;;17.59;59.99;98566.03;5054515;28;865;-57
2022/04/10 05:54:16;;;;;;;;;;;;;;;17.51;60.21;98567.66;5054349;28;933;-57
2022/04/10 05:56:43;;;;;;;;;;;;;;;17.94;58.70;98559.78;5054376;28;863;-57
2022/04/10 05:59:10;;;;;;;;;;;;;;;18.49;56.85;98559.09;5054290;28;926;-57
2022/04/10 06:01:37;;;;;;;;;;;;;;;18.96;55.57;98557.22;5053973;28;878;-57
2022/04/10 06:04:04;;;;;;;;;;;;;;;18.61;56.43;98565.63;5054143;28;906;-57
2022/04/10 06:06:29;;;;;;;;;;;;;;;18.57;57.67;98568.63;5054469;28;838;-57
2022/04/10 06:08:56;;;;;;;;;;;;;;;18.60;57.20;98564.09;5054220;28;810;-57
2022/04/10 06:11:22;;;;;;;;;;;;;;;18.40;58.20;98564.06;5054149;28;1941;-57
2022/04/10 06:13:50;;;;;;;;;;;;;;;18.20;58.60;98559.97;5054271;28;822;-57
2022/04/10 06:16:16;;;;;;;;;;;;;;;17.91;59.39;98558.72;5054010;28;945;-57
2022/04/10 06:18:43;;;;;;;;;;;;;;;17.67;60.24;98558.03;5054035;28;822;-57
2022/04/10 06:21:10;;;;;;;;;;;;;;;17.85;59.71;98557.09;5053995;28;865;-57
2022/04/10 06:23:37;;;;;;;;;;;;;;;18.08;60.11;98559.00;5053924;28;944;-57
2022/04/10 06:26:04;;;;;;;;;;;;;;;18.44;59.14;98567.44;5053863;28;1357;-57
2022/04/10 06:28:30;;;;;;;;;;;;;;;18.79;58.02;98566.66;5053864;28;810;-57
2022/04/10 06:30:57;;;;;;;;;;;;;;;18.90;56.84;98567.56;5053664;28;1977;-57
2022/04/10 06:33:24;;;;;;;;;;;;;;;18.88;56.82;98567.31;5053677;28;841;-57
2022/04/10 06:35:50;;;;;;;;;;;;;;;18.94;57.31;98558.97;5053598;28;799;-57
2022/04/10 06:38:17;;;;;;;;;;;;;;;19.30;56.49;98565.25;5053657;28;955;-57
2022/04/10 06:40:45;;;;;;;;;;;;;;;19.84;55.11;98571.16;5053847;28;857;-57
2022/04/10 06:43:12;;;;;;;;;;;;;;;20.65;52.41;98576.88;5053420;28;909;-57
2022/04/10 06:45:39;;;;;;;;;;;;;;;21.54;51.43;98567.31;5053470;28;922;-57
2022/04/10 06:48:06;;;;;;;;;;;;;;;22.07;48.79;98568.38;5053446;28;850;-57
2022/04/10 06:50:34;;;;;;;;;;;;;;;22.29;48.40;98572.50;5052018;28;2638;-57
2022/04/10 06:53:01;;;;;;;;;;;;;;;22.19;47.90;98567.09;5053351;28;914;-58
2022/04/10 06:55:27;;;;;;;;;;;;;;;21.95;49.60;98569.66;5053383;28;790;-58
2022/04/10 06:57:55;;;;;;;;;;;;;;;21.45;49.85;98568.31;5053339;28;881;-58
2022/04/10 07:00:22;;;;;;;;;;;;;;;21.70;48.97;98566.56;5053112;28;877;-57
2022/04/10 07:02:49;;;;;;;;;;;;;;;22.05;48.77;98564.53;5052903;28;893;-57
2022/04/10 07:05:16;;;;;;;;;;;;;;;22.08;48.39;98567.09;5053187;28;858;-58
2022/04/10 07:07:43;;;;;;;;;;;;;;;21.88;48.44;98572.97;5053119;28;901;-58
2022/04/10 07:10:09;;;;;;;;;;;;;;;22.18;48.06;98568.38;5053017;28;1910;-57
2022/04/10 07:12:36;;;;;;;;;;;;;;;22.44;47.41;98570.16;5053064;28;1017;-57
2022/04/10 07:15:03;;;;;;;;;;;;;;;22.56;48.15;98582.19;5052066;28;868;-57
2022/04/10 07:17:29;;;;;;;;;;;;;;;22.82;49.03;98579.03;5052961;28;818;-57
2022/04/10 07:20:15;;;;;;;;;;;;;;;23.37;46.09;98582.94;5052954;28;893;-57
2022/04/10 07:25:27;;;;;;;;;;;;;;;22.93;48.41;98583.88;5053103;28;899;-56
2022/04/10 07:27:53;;;;;;;;;;;;;;;22.94;47.86;98579.78;5052688;28;929;-57
2022/04/10 07:30:20;;;;;;;;;;;;;;;22.35;48.52;98592.94;5052549;28;1919;-57
2022/04/10 07:32:53;;;;;;;;;;;;;;;21.05;51.16;98591.91;5052595;28;830;-57
2022/04/10 07:35:21;;;;;;;;;;;;;;;20.23;55.12;98586.75;5052685;28;799;-57
2022/04/10 07:37:48;;;;;;;;;;;;;;;20.03;56.04;98579.97;5052401;28;942;-57
2022/04/10 07:40:15;;;;;;;;;;;;;;;19.55;56.51;98584.09;5052416;28;809;-57
2022/04/10 07:42:43;;;;;;;;;;;;;;;19.79;56.77;98583.09;5052358;28;953;-57
2022/04/10 07:47:25;;;;;;;;;;;;;;;20.85;54.21;98578.78;5052489;28;827;-58
2022/04/10 07:47:58;;;;;;;;;;;;;;;20.57;54.33;98594.19;5052211;28;876;-57
2022/04/10 07:50:25;;;;;;;;;;;;;;;19.79;55.77;98599.91;5052184;28;1893;-57
2022/04/10 07:52:52;;;;;;;;;;;;;;;19.68;57.08;98596.97;5052275;28;815;-57
2022/04/10 07:55:20;;;;;;;;;;;;;;;20.06;56.37;98598.63;5052218;28;870;-57
2022/04/10 07:57:46;;;;;;;;;;;;;;;19.82;56.45;98596.09;5052088;28;913;-57
2022/04/10 08:00:12;;;;;;;;;;;;;;;19.49;58.04;98594.47;5052003;28;866;-57
2022/04/10 08:02:43;;;;;;;;;;;;;;;19.32;58.24;98593.53;5051793;28;1097;-58
2022/04/10 08:05:09;;;;;;;;;;;;;;;19.36;58.53;98591.28;5052002;28;862;-58
2022/04/10 08:07:36;;;;;;;;;;;;;;;19.44;58.50;98586.00;5051840;28;937;-58
2022/04/10 08:10:03;;;;;;;;;;;;;;;19.57;60.22;98589.22;5050611;28;1902;-57
2022/04/10 08:12:30;;;;;;;;;;;;;;;19.75;58.22;98585.34;5051897;28;869;-57
2022/04/10 08:14:57;;;;;;;;;;;;;;;19.85;58.36;98597.94;5051853;28;815;-57
2022/04/10 08:17:24;;;;;;;;;;;;;;;19.89;57.52;98587.28;5051747;28;1039;-57
2022/04/10 08:19:51;;;;;;;;;;;;;;;20.24;56.66;98585.50;5051898;28;802;-58
2022/04/10 08:22:24;;;;;;;;;;;;;;;20.34;55.75;98586.88;5051815;28;850;-58
2022/04/10 08:24:50;;;;;;;;;;;;;;;20.64;55.91;98590.16;5051684;28;949;-57
2022/04/10 08:27:18;;;;;;;;;;;;;;;20.71;55.40;98586.88;5051505;28;1221;-57
2022/04/10 08:29:44;;;;;;;;;;;;;;;20.62;55.23;98575.84;5051672;28;1971;-57
2022/04/10 08:32:11;;;;;;;;;;;;;;;20.19;55.97;98575.78;5051436;28;1284;-57
2022/04/10 08:34:38;;;;;;;;;;;;;;;19.85;56.97;98585.97;5051568;28;859;-57
2022/04/10 08:37:05;;;;;;;;;;;;;;;19.47;58.39;98579.44;5051575;28;894;-57
2022/04/10 08:39:32;;;;;;;;;;;;;;;18.80;59.97;98585.78;5051416;28;897;-57
2022/04/10 08:42:01;;;;;;;;;;;;;;;18.33;62.09;98587.63;5051572;28;798;-57
2022/04/10 08:44:29;;;;;;;;;;;;;;;18.17;62.18;98584.06;5051448;28;854;-57
2022/04/10 08:46:57;;;;;;;;;;;;;;;18.15;62.24;98586.56;5051492;28;814;-57
2022/04/10 08:49:29;;;;;;;;;;;;;;;18.16;62.69;98590.91;5051463;28;805;-57
2022/04/10 08:51:56;;;;;;;;;;;;;;;18.08;63.08;98589.00;5051315;28;930;-57
2022/04/10 08:54:23;;;;;;;;;;;;;;;18.05;62.93;98587.94;5051393;28;873;-58
2022/04/10 08:56:52;;;;;;;;;;;;;;;18.07;62.75;98587.44;5051360;28;854;-57
2022/04/10 08:59:20;;;;;;;;;;;;;;;18.18;62.62;98584.84;5051727;28;834;-57
2022/04/10 09:01:56;;;;;;;;;;;;;;;18.29;62.07;98584.25;5051558;28;873;-57
2022/04/10 09:04:23;;;;;;;;;;;;;;;18.38;62.80;98595.31;5050093;28;1269;-57
2022/04/10 09:07:02;;;;;;;;;;;;;;;18.29;63.02;98587.03;5051295;28;905;-57
2022/04/10 09:09:30;;;;;;;;;;;;;;;18.13;62.10;98580.69;5051274;28;1882;-57
2022/04/10 09:11:57;;;;;;;;;;;;;;;17.98;63.32;98581.97;5051133;28;1216;-57
2022/04/10 09:14:28;;;;;;;;;;;;;;;17.92;64.01;98584.66;5051225;28;1061;-57
2022/04/10 09:17:11;;;;;;;;;;;;;;;18.02;63.24;98585.34;5051193;28;933;-57
2022/04/10 09:19:39;;;;;;;;;;;;;;;18.18;63.11;98590.44;5051258;28;901;-57
2022/04/10 09:22:38;;;;;;;;;;;;;;;18.21;62.50;98581.06;5051134;28;921;-57
2022/04/10 09:25:14;;;;;;;;;;;;;;;18.33;62.68;98580.00;5006488;28;1565;-57
2022/04/10 09:27:43;;;;;;;;;;;;;;;18.33;62.74;98580.00;5051063;28;1300;-57
2022/04/10 09:30:14;;;;;;;;;;;;;;;18.11;62.49;98577.59;5051006;28;1917;-57
2022/04/10 09:32:42;;;;;;;;;;;;;;;17.80;63.45;98589.25;5050984;28;791;-57
2022/04/10 09:35:10;;;;;;;;;;;;;;;17.84;63.98;98580.72;5050920;28;933;-57
2022/04/10 09:37:53;;;;;;;;;;;;;;;18.02;63.08;98583.31;5052732;28;866;-58
2022/04/10 09:40:25;;;;;;;;;;;;;;;18.19;62.95;98575.19;5054808;28;927;-57
2022/04/10 09:43:12;;;;;;;;;;;;;;;18.56;62.21;98569.91;5054667;28;855;-57
2022/04/10 09:45:43;;;;;;;;;;;;;;;18.93;60.16;98569.41;5054601;28;2156;-57
2022/04/10 09:48:22;;;;;;;;;;;;;;;18.91;60.26;98560.72;5053470;28;858;-57
2022/04/10 09:50:52;;;;;;;;;;;;;;;18.84;60.25;98563.94;5054469;28;1949;-57
2022/04/10 09:53:18;;;;;;;;;;;;;;;18.87;59.55;98557.34;5054693;28;933;-57
2022/04/10 09:55:51;;;;;;;;;;;;;;;19.13;60.09;98557.41;5054518;28;881;-57
2022/04/10 10:24:32;;;;;;;;;;;;;;;22.49;49.32;98520.75;6081410;22;2119;-58
2022/04/10 10:27:13;;;;;;;;;;;;;;;23.56;47.62;98512.59;5034119;28;873;-57
2022/04/10 10:29:41;;;;;;;;;;;;;;;24.09;45.68;98520.13;5033907;28;1910;-57
2022/04/10 10:32:14;;;;;;;;;;;;;;;23.69;46.37;98514.81;5033932;28;1113;-57
2022/04/10 10:34:42;;;;;;;;;;;;;;;23.22;47.12;98517.69;5033940;28;822;-57
2022/04/10 10:37:12;;;;;;;;;;;;;;;22.79;48.77;98515.31;5033828;28;814;-57
2022/04/10 10:39:49;;;;;;;;;;;;;;;22.65;49.58;98505.09;5033748;28;901;-57
2022/04/10 10:42:15;;;;;;;;;;;;;;;21.74;50.60;98510.84;5033930;28;858;-57
2022/04/10 10:44:43;;;;;;;;;;;;;;;21.17;51.76;98514.81;5033672;28;846;-57
2022/04/10 10:47:19;;;;;;;;;;;;;;;20.48;52.90;98524.19;5033576;28;818;-57
2022/04/10 10:49:50;;;;;;;;;;;;;;;19.69;56.00;98523.59;5032312;28;1890;-57
2022/04/10 10:52:18;;;;;;;;;;;;;;;19.39;57.99;98517.44;5033517;28;806;-57
2022/04/10 10:54:50;;;;;;;;;;;;;;;19.27;58.33;98522.19;5033282;28;852;-57
2022/04/10 10:57:23;;;;;;;;;;;;;;;19.26;57.76;98529.03;5033467;28;850;-57
2022/04/10 11:00:04;;;;;;;;;;;;;;;18.83;49.86;98526.00;5033439;28;838;-57
2022/04/10 11:02:33;;;;;;;;;;;;;;;18.29;50.36;98519.91;5033267;28;867;-57
2022/04/10 11:04:59;;;;;;;;;;;;;;;17.84;51.19;98514.41;5033293;28;873;-57
2022/04/10 11:07:27;;;;;;;;;;;;;;;17.57;52.08;98523.84;5033231;28;854;-57
2022/04/10 11:10:00;;;;;;;;;;;;;;;17.52;53.18;98522.50;5032907;28;1886;-57
2022/04/10 11:12:47;;;;;;;;;;;;;;;17.61;52.66;98512.47;5033494;28;826;-57
2022/04/10 11:15:14;;;;;;;;;;;;;;;17.92;51.19;98504.38;5032969;28;870;-56
2022/04/10 11:17:40;;;;;;;;;;;;;;;18.37;50.31;98495.88;5033039;28;1318;-57
2022/04/10 11:20:09;;;;;;;;;;;;;;;18.86;49.32;98485.06;5033051;28;841;-57
2022/04/10 11:22:42;;;;;;;;;;;;;;;19.17;47.84;98478.78;5033047;28;938;-57
2022/04/10 11:25:09;;;;;;;;;;;;;;;19.27;46.47;98482.22;5038126;28;1193;-57
2022/04/10 11:27:44;;;;;;;;;;;;;;;18.80;46.52;98493.41;5053029;28;834;-57
2022/04/10 11:30:24;;;;;;;;;;;;;;;18.58;48.17;98491.06;5052610;28;1910;-56
2022/04/10 11:32:54;;;;;;;;;;;;;;;18.28;47.89;98485.56;5052590;28;854;-57
2022/04/10 11:35:22;;;;;;;;;;;;;;;18.10;49.04;98483.81;5052663;28;830;-57
2022/04/10 11:37:51;;;;;;;;;;;;;;;18.00;48.92;98479.56;5052529;28;909;-57
2022/04/10 11:40:18;;;;;;;;;;;;;;;17.81;48.65;98495.78;5052518;28;880;-57
2022/04/10 11:42:46;;;;;;;;;;;;;;;17.61;49.62;98506.88;5052405;28;874;-57
2022/04/10 11:45:13;;;;;;;;;;;;;;;17.38;49.47;98492.53;5052446;28;896;-57
2022/04/10 11:47:42;;;;;;;;;;;;;;;17.27;50.48;98500.69;5052287;28;933;-57
2022/04/10 11:50:11;;;;;;;;;;;;;;;17.18;50.48;98504.34;5052216;28;1885;-57
2022/04/10 11:52:37;;;;;;;;;;;;;;;17.05;50.74;98501.84;5052412;28;929;-56
2022/04/10 11:55:08;;;;;;;;;;;;;;;16.90;50.31;98499.00;5052356;28;861;-57
2022/04/10 11:57:38;;;;;;;;;;;;;;;16.99;50.02;98492.56;5052249;28;814;-57
2022/04/10 12:00:09;;;;;;;;;;;;;;;17.25;48.97;98487.22;5051734;28;917;-57
2022/04/10 12:02:37;;;;;;;;;;;;;;;17.59;49.38;98487.81;5052016;28;874;-57
2022/04/10 12:05:04;;;;;;;;;;;;;;;17.84;47.79;98494.84;5052280;28;949;-57
2022/04/10 12:07:31;;;;;;;;;;;;;;;17.75;47.22;98489.31;5052065;28;861;-57
2022/04/10 12:09:58;;;;;;;;;;;;;;;17.38;48.62;98498.09;5051823;28;1882;-57
2022/04/10 12:12:36;;;;;;;;;;;;;;;17.13;48.95;98516.16;5051927;28;810;-57
2022/04/10 12:15:14;;;;;;;;;;;;;;;16.60;49.14;98495.34;5050961;28;931;-56
2022/04/10 12:17:42;;;;;;;;;;;;;;;15.52;53.13;98519.16;5051861;28;922;-56
2022/04/10 12:20:09;;;;;;;;;;;;;;;14.18;57.17;98516.88;5051881;28;888;-57
2022/04/10 12:22:47;;;;;;;;;;;;;;;13.00;63.30;98499.88;5051797;28;908;-56
2022/04/10 12:25:15;;;;;;;;;;;;;;;12.20;68.28;98500.97;5051605;28;1348;-58
2022/04/10 12:27:44;;;;;;;;;;;;;;;11.83;68.38;98528.19;5052030;28;861;-55
2022/04/10 12:30:11;;;;;;;;;;;;;;;11.93;68.57;98496.69;5051709;28;1906;-57
2022/04/10 12:32:38;;;;;;;;;;;;;;;12.40;65.97;98500.72;5051677;28;786;-57
2022/04/10 12:35:12;;;;;;;;;;;;;;;12.81;65.13;98501.72;5051559;28;846;-55
2022/04/10 12:37:59;;;;;;;;;;;;;;;13.08;62.97;98526.13;5051600;28;985;-56
2022/04/10 12:40:29;;;;;;;;;;;;;;;13.31;63.48;98494.41;5051583;28;814;-56
2022/04/10 12:42:59;;;;;;;;;;;;;;;13.39;61.26;98504.00;5051529;28;822;-56
2022/04/10 12:45:32;;;;;;;;;;;;;;;13.31;61.40;98488.84;5051833;28;830;-55
2022/04/10 12:47:59;;;;;;;;;;;;;;;13.31;61.61;98452.00;5052386;28;873;-56
2022/04/10 12:50:26;;;;;;;;;;;;;;;13.35;61.52;98463.75;5051630;28;1882;-56
2022/04/10 12:52:55;;;;;;;;;;;;;;;13.57;60.80;98477.59;5051481;28;830;-57
2022/04/10 12:55:31;;;;;;;;;;;;;;;13.81;59.95;98502.88;5051564;28;917;-57
2022/04/10 12:58:01;;;;;;;;;;;;;;;13.91;58.50;98457.22;5051434;28;854;-56
2022/04/10 13:00:29;;;;;;;;;;;;;;;13.96;59.42;98487.19;5051599;28;909;-57
2022/04/10 13:03:13;;;;;;;;;;;;;;;14.33;58.96;98447.59;5051439;28;815;-56
2022/04/10 13:05:53;;;;;;;;;;;;;;;14.42;57.21;98476.19;5051214;28;863;-55
2022/04/10 13:08:22;;;;;;;;;;;;;;;14.49;57.58;98470.31;5051402;28;790;-54
2022/04/10 13:10:50;;;;;;;;;;;;;;;14.47;57.41;98475.56;5051201;28;1877;-54
2022/04/10 13:13:16;;;;;;;;;;;;;;;14.63;57.04;98496.78;5054032;28;838;-54
2022/04/10 13:15:42;;;;;;;;;;;;;;;14.86;55.82;98528.00;5055305;28;893;-54
2022/04/10 13:18:09;;;;;;;;;;;;;;;14.45;57.27;98525.28;5055278;28;880;-51
2022/04/10 13:20:37;;;;;;;;;;;;;;;14.25;57.07;98517.38;5055160;28;933;-52
2022/04/10 13:23:04;;;;;;;;;;;;;;;14.16;57.06;98541.56;5055058;28;794;-51
2022/04/10 13:25:36;;;;;;;;;;;;;;;14.07;57.57;98520.09;5054824;28;1470;-52
2022/04/10 13:28:03;;;;;;;;;;;;;;;14.20;57.09;98517.97;5054994;28;945;-53
2022/04/10 13:30:30;;;;;;;;;;;;;;;14.38;57.19;98506.16;5055147;28;1909;-53
2022/04/10 13:32:59;;;;;;;;;;;;;;;14.58;56.27;98532.78;5054931;28;885;-54
2022/04/10 13:35:26;;;;;;;;;;;;;;;14.70;55.55;98529.84;5054855;28;934;-55
2022/04/10 13:37:53;;;;;;;;;;;;;;;14.36;56.51;98530.84;5054847;28;876;-54
2022/04/10 13:40:19;;;;;;;;;;;;;;;14.03;57.41;98514.66;5054785;28;957;-55
2022/04/10 13:42:47;;;;;;;;;;;;;;;14.06;58.59;98510.19;5054676;28;930;-55